CST,Max TemperatureF,Mean TemperatureF,Min TemperatureF,Max Dew PointF,MeanDew PointF,Min DewpointF,Max Humidity, Mean Humidity, Min Humidity, Max Sea Level PressureIn, Mean Sea Level PressureIn, Min Sea Level PressureIn, Max VisibilityMiles, Mean VisibilityMiles, Min VisibilityMiles, Max Wind SpeedMPH, Mean Wind SpeedMPH, Max Gust SpeedMPH,PrecipitationIn, CloudCover, Events, WindDirDegrees
2013-1-1,17,11,5,9,4,0,80,73,58,30.21,30.17,30.12,10,10,10,13,10,,0.00,1,,316
2013-1-2,28,16,4,18,9,-1,82,73,60,30.17,30.11,30.05,10,10,10,17,8,,0.00,1,,198
2013-1-3,26,20,13,23,18,10,89,82,76,30.26,30.17,30.06,10,9,4,18,12,23,0.00,6,Snow,259
2013-1-4,32,21,10,22,16,6,85,78,64,30.23,30.19,30.12,10,10,10,23,14,31,0.00,0,,242
2013-1-5,34,24,13,31,23,11,93,88,79,30.22,30.09,29.92,10,7,2,20,9,25,0.00,4,Rain-Snow,201
2013-1-6,33,23,13,31,19,11,92,85,78,30.31,30.12,29.90,10,8,5,20,14,30,0.00,3,,271
2013-1-7,37,24,11,27,19,8,89,81,59,30.30,30.18,30.08,10,8,4,29,12,34,0.00,0,,185
2013-1-8,41,31,21,30,26,18,93,83,64,30.14,30.07,30.01,10,7,3,18,11,23,0.00,1,,170
2013-1-9,44,36,27,31,26,20,87,71,37,30.47,30.26,29.99,10,10,10,28,14,37,0.00,0,,258
2013-1-10,41,31,21,36,26,18,93,77,45,30.48,30.23,29.85,10,7,0,17,7,25,0.48,3,Rain,112
2013-1-11,47,42,38,45,42,36,93,91,87,29.85,29.72,29.67,10,4,0,21,13,26,0.39,6,Fog-Rain,178
2013-1-12,48,36,25,44,32,22,91,85,77,29.99,29.87,29.69,10,9,3,22,15,28,0.11,3,Snow,260
2013-1-13,24,17,10,22,14,5,89,83,77,30.22,30.03,29.87,10,9,2,21,12,23,0.01,7,Snow,289
2013-1-14,20,14,8,12,8,4,84,77,62,30.42,30.38,30.22,10,10,10,14,8,18,0.00,0,,276
2013-1-15,26,18,11,17,12,7,86,76,62,30.40,30.30,30.11,10,10,10,7,3,,0.00,0,,234
2013-1-16,32,22,13,28,21,10,87,76,60,30.09,29.95,29.82,10,10,10,25,12,32,0.00,5,,238
2013-1-17,32,25,18,28,14,6,88,67,46,30.39,30.27,30.06,10,10,10,17,9,22,0.00,2,,313
2013-1-18,38,26,15,31,23,12,87,79,67,30.40,30.14,29.89,10,10,10,31,13,39,0.00,1,,197
2013-1-19,44,34,21,36,30,9,81,73,53,29.95,29.83,29.72,10,10,10,38,19,48,0.00,1,,237
2013-1-20,20,15,10,8,2,0,68,61,51,30.28,30.20,29.97,10,10,10,31,19,40,0.00,3,,292
2013-1-21,10,6,1,5,-5,-10,79,60,41,30.24,30.18,30.11,10,10,4,26,16,33,0.00,2,Snow,287
2013-1-22,10,4,-3,-4,-7,-10,74,59,46,30.35,30.30,30.24,10,10,4,17,11,22,0.00,1,,284
2013-1-23,19,14,8,12,4,-4,81,65,53,30.34,30.20,30.09,10,9,1,23,10,33,0.00,7,Snow,263
2013-1-24,19,10,2,5,-1,-6,68,57,42,30.60,30.48,30.32,10,10,10,20,12,26,0.00,1,,50
2013-1-25,28,22,15,19,13,2,93,73,51,30.33,30.08,29.94,10,9,2,21,12,25,0.01,7,Snow,223
2013-1-26,23,14,6,14,7,1,81,66,48,30.37,30.31,30.18,10,10,10,10,6,,0.00,2,,310
2013-1-27,32,26,21,31,23,15,93,83,73,30.34,30.13,29.87,10,6,0,18,12,24,0.30,5,Snow-Thunderstorm,145
2013-1-28,42,37,32,40,37,31,93,91,87,29.94,29.87,29.77,10,3,0,18,9,21,0.08,8,Fog-Rain-Snow-Thunderstorm,187
2013-1-29,59,50,40,57,49,38,93,92,91,29.76,29.57,29.40,5,2,0,22,13,28,0.87,8,Fog-Rain-Thunderstorm,196
2013-1-30,38,28,17,37,27,13,95,91,81,29.63,29.38,29.23,10,4,1,30,14,34,0.35,8,Rain-Snow,336
2013-1-31,17,10,1,12,5,-4,83,78,72,30.15,29.87,29.64,10,8,2,26,21,36,0.00,6,Snow,278